sensor_id;sensor_type;location;lat;lon;timestamp;P1;durP1;ratioP1;P2;durP2;ratioP2
2956;SDS011;1488;51.548;7.222;2023-07-09T07:35:11;2.90;;;1.90;;
2956;SDS011;1488;51.548;7.222;2023-07-09T07:37:39;1.83;;;1.73;;
2956;SDS011;1488;51.548;7.222;2023-07-09T07:40:06;2.57;;;1.90;;
2956;SDS011;1488;51.548;7.222;2023-07-09T07:42:34;2.40;;;2.20;;
2956;SDS011;1488;51.548;7.222;2023-07-09T07:45:00;1.87;;;1.50;;
2956;SDS011;1488;51.548;7.222;2023-07-09T07:47:28;1.63;;;1.50;;
2956;SDS011;1488;51.548;7.222;2023-07-09T07:49:55;2.57;;;2.00;;
2956;SDS011;1488;51.548;7.222;2023-07-09T07:52:23;1.90;;;1.80;;
2956;SDS011;1488;51.548;7.222;2023-07-09T07:54:50;2.53;;;1.90;;
2956;SDS011;1488;51.548;7.222;2023-07-09T07:57:18;1.97;;;1.83;;
2956;SDS011;1488;51.548;7.222;2023-07-09T07:59:45;2.30;;;2.10;;
2956;SDS011;1488;51.548;7.222;2023-07-09T08:02:12;1.87;;;1.77;;
2956;SDS011;1488;51.548;7.222;2023-07-09T08:04:40;1.77;;;1.67;;
2956;SDS011;1488;51.548;7.222;2023-07-09T08:07:07;1.97;;;1.87;;
2956;SDS011;1488;51.548;7.222;2023-07-09T08:09:37;2.83;;;1.80;;
2956;SDS011;1488;51.548;7.222;2023-07-09T08:12:04;2.20;;;1.77;;
2956;SDS011;1488;51.548;7.222;2023-07-09T08:14:36;2.67;;;2.17;;
2956;SDS011;1488;51.548;7.222;2023-07-09T08:17:04;2.40;;;2.20;;
2956;SDS011;1488;51.548;7.222;2023-07-09T08:19:31;2.67;;;2.47;;
2956;SDS011;1488;51.548;7.222;2023-07-09T08:21:58;2.40;;;2.20;;
2956;SDS011;1488;51.548;7.222;2023-07-09T08:24:25;2.70;;;2.50;;
2956;SDS011;1488;51.548;7.222;2023-07-09T08:26:53;2.27;;;2.07;;
2956;SDS011;1488;51.548;7.222;2023-07-09T08:29:25;3.47;;;2.53;;
2956;SDS011;1488;51.548;7.222;2023-07-09T08:31:51;2.70;;;2.20;;
2956;SDS011;1488;51.548;7.222;2023-07-09T08:34:18;2.43;;;2.23;;
2956;SDS011;1488;51.548;7.222;2023-07-09T08:40:09;2.70;;;2.50;;
2956;SDS011;1488;51.548;7.222;2023-07-09T08:42:42;5.00;;;2.63;;
2956;SDS011;1488;51.548;7.222;2023-07-09T08:45:17;6.37;;;3.90;;
2956;SDS011;1488;51.548;7.222;2023-07-09T08:47:57;3.80;;;3.50;;
2956;SDS011;1488;51.548;7.222;2023-07-09T08:50:30;3.07;;;2.73;;
2956;SDS011;1488;51.548;7.222;2023-07-09T09:23:36;34.80;;;30.90;;
2956;SDS011;1488;51.548;7.222;2023-07-09T09:26:09;19.10;;;17.20;;
2956;SDS011;1488;51.548;7.222;2023-07-09T09:28:43;16.57;;;14.73;;
2956;SDS011;1488;51.548;7.222;2023-07-09T09:31:10;18.50;;;16.60;;
2956;SDS011;1488;51.548;7.222;2023-07-09T09:33:40;19.13;;;16.80;;
2956;SDS011;1488;51.548;7.222;2023-07-09T11:04:18;8.23;;;7.00;;
2956;SDS011;1488;51.548;7.222;2023-07-09T11:06:53;8.40;;;7.60;;
2956;SDS011;1488;51.548;7.222;2023-07-09T11:09:24;9.20;;;7.33;;
2956;SDS011;1488;51.548;7.222;2023-07-09T11:12:12;8.93;;;6.70;;
2956;SDS011;1488;51.548;7.222;2023-07-09T11:14:55;8.83;;;7.27;;
2956;SDS011;1488;51.548;7.222;2023-07-09T11:20:41;7.37;;;6.60;;
2956;SDS011;1488;51.548;7.222;2023-07-09T11:23:16;6.27;;;5.67;;
2956;SDS011;1488;51.548;7.222;2023-07-09T11:26:11;6.30;;;5.70;;
2956;SDS011;1488;51.548;7.222;2023-07-09T11:29:09;8.97;;;5.87;;
2956;SDS011;1488;51.548;7.222;2023-07-09T11:31:42;8.30;;;5.53;;
2956;SDS011;1488;51.548;7.222;2023-07-09T11:34:16;5.97;;;5.33;;
2956;SDS011;1488;51.548;7.222;2023-07-09T11:36:46;11.13;;;5.97;;
2956;SDS011;1488;51.548;7.222;2023-07-09T11:39:19;5.80;;;5.30;;
2956;SDS011;1488;51.548;7.222;2023-07-09T11:41:47;6.53;;;5.80;;
2956;SDS011;1488;51.548;7.222;2023-07-09T11:44:16;6.10;;;5.40;;
2956;SDS011;1488;51.548;7.222;2023-07-09T11:46:48;6.87;;;5.90;;
2956;SDS011;1488;51.548;7.222;2023-07-09T11:49:22;6.80;;;5.90;;
2956;SDS011;1488;51.548;7.222;2023-07-09T11:51:54;6.60;;;6.00;;
2956;SDS011;1488;51.548;7.222;2023-07-09T11:54:25;6.07;;;5.40;;
2956;SDS011;1488;51.548;7.222;2023-07-09T11:56:55;8.70;;;5.40;;
2956;SDS011;1488;51.548;7.222;2023-07-09T11:59:23;9.17;;;6.13;;
2956;SDS011;1488;51.548;7.222;2023-07-09T12:01:51;5.97;;;5.43;;
2956;SDS011;1488;51.548;7.222;2023-07-09T12:04:22;5.33;;;4.83;;
2956;SDS011;1488;51.548;7.222;2023-07-09T12:06:56;6.80;;;5.00;;
2956;SDS011;1488;51.548;7.222;2023-07-09T12:09:30;7.43;;;4.90;;
2956;SDS011;1488;51.548;7.222;2023-07-09T12:11:58;6.03;;;5.00;;
2956;SDS011;1488;51.548;7.222;2023-07-09T12:14:26;7.00;;;5.00;;
2956;SDS011;1488;51.548;7.222;2023-07-09T12:16:53;8.10;;;6.13;;
2956;SDS011;1488;51.548;7.222;2023-07-09T12:19:22;6.07;;;5.47;;
2956;SDS011;1488;51.548;7.222;2023-07-09T12:21:51;4.93;;;4.10;;
2956;SDS011;1488;51.548;7.222;2023-07-09T12:24:22;7.23;;;4.37;;
2956;SDS011;1488;51.548;7.222;2023-07-09T12:26:51;6.90;;;5.17;;
2956;SDS011;1488;51.548;7.222;2023-07-09T12:29:18;5.53;;;5.03;;
2956;SDS011;1488;51.548;7.222;2023-07-09T12:31:46;8.03;;;4.70;;
2956;SDS011;1488;51.548;7.222;2023-07-09T12:34:13;6.70;;;4.33;;
2956;SDS011;1488;51.548;7.222;2023-07-09T12:36:43;5.13;;;4.33;;
2956;SDS011;1488;51.548;7.222;2023-07-09T12:39:12;5.70;;;4.80;;
2956;SDS011;1488;51.548;7.222;2023-07-09T12:41:42;5.13;;;4.47;;
2956;SDS011;1488;51.548;7.222;2023-07-09T12:44:14;4.00;;;3.70;;
2956;SDS011;1488;51.548;7.222;2023-07-09T12:46:44;4.60;;;4.20;;
2956;SDS011;1488;51.548;7.222;2023-07-09T12:49:20;4.93;;;4.43;;
2956;SDS011;1488;51.548;7.222;2023-07-09T12:51:49;4.17;;;3.77;;
2956;SDS011;1488;51.548;7.222;2023-07-09T12:54:18;5.10;;;4.47;;
2956;SDS011;1488;51.548;7.222;2023-07-09T12:56:49;5.27;;;4.27;;
2956;SDS011;1488;51.548;7.222;2023-07-09T12:59:18;5.13;;;4.13;;
2956;SDS011;1488;51.548;7.222;2023-07-09T13:01:54;5.17;;;4.70;;
2956;SDS011;1488;51.548;7.222;2023-07-09T13:04:29;6.50;;;4.60;;
2956;SDS011;1488;51.548;7.222;2023-07-09T13:06:59;7.17;;;4.30;;
2956;SDS011;1488;51.548;7.222;2023-07-09T13:09:26;5.10;;;4.27;;
2956;SDS011;1488;51.548;7.222;2023-07-09T13:11:53;5.63;;;4.40;;
2956;SDS011;1488;51.548;7.222;2023-07-09T13:14:21;4.70;;;3.90;;
2956;SDS011;1488;51.548;7.222;2023-07-09T13:16:50;4.97;;;4.30;;
2956;SDS011;1488;51.548;7.222;2023-07-09T13:19:17;5.60;;;4.60;;
2956;SDS011;1488;51.548;7.222;2023-07-09T13:21:45;5.20;;;4.50;;
2956;SDS011;1488;51.548;7.222;2023-07-09T13:24:15;5.67;;;5.00;;
2956;SDS011;1488;51.548;7.222;2023-07-09T13:26:49;5.60;;;4.83;;
2956;SDS011;1488;51.548;7.222;2023-07-09T13:29:18;5.87;;;4.03;;
2956;SDS011;1488;51.548;7.222;2023-07-09T13:31:45;7.40;;;4.77;;
2956;SDS011;1488;51.548;7.222;2023-07-09T13:34:18;5.87;;;4.20;;
2956;SDS011;1488;51.548;7.222;2023-07-09T13:36:46;11.40;;;5.40;;
2956;SDS011;1488;51.548;7.222;2023-07-09T13:39:15;5.47;;;4.87;;
2956;SDS011;1488;51.548;7.222;2023-07-09T13:41:43;6.70;;;3.80;;
2956;SDS011;1488;51.548;7.222;2023-07-09T13:44:11;5.73;;;4.00;;
2956;SDS011;1488;51.548;7.222;2023-07-09T13:46:41;5.10;;;3.70;;
2956;SDS011;1488;51.548;7.222;2023-07-09T13:49:08;10.40;;;3.73;;
2956;SDS011;1488;51.548;7.222;2023-07-09T13:51:37;4.57;;;4.00;;
2956;SDS011;1488;51.548;7.222;2023-07-09T13:54:09;5.50;;;4.33;;
2956;SDS011;1488;51.548;7.222;2023-07-09T13:56:42;7.40;;;4.00;;
2956;SDS011;1488;51.548;7.222;2023-07-09T13:59:13;4.17;;;3.80;;
2956;SDS011;1488;51.548;7.222;2023-07-09T14:01:41;4.33;;;3.67;;
2956;SDS011;1488;51.548;7.222;2023-07-09T14:04:09;4.80;;;3.63;;
2956;SDS011;1488;51.548;7.222;2023-07-09T14:06:38;5.03;;;3.47;;
2956;SDS011;1488;51.548;7.222;2023-07-09T14:09:05;3.87;;;3.53;;
2956;SDS011;1488;51.548;7.222;2023-07-09T14:11:32;6.17;;;4.03;;
2956;SDS011;1488;51.548;7.222;2023-07-09T14:14:01;4.17;;;3.60;;
2956;SDS011;1488;51.548;7.222;2023-07-09T14:16:28;7.77;;;4.00;;
2956;SDS011;1488;51.548;7.222;2023-07-09T14:18:55;5.80;;;4.00;;
2956;SDS011;1488;51.548;7.222;2023-07-09T14:21:23;5.97;;;3.93;;
2956;SDS011;1488;51.548;7.222;2023-07-09T14:23:52;5.50;;;3.70;;
2956;SDS011;1488;51.548;7.222;2023-07-09T14:26:19;4.83;;;4.00;;
2956;SDS011;1488;51.548;7.222;2023-07-09T14:28:45;71.40;;;19.33;;
2956;SDS011;1488;51.548;7.222;2023-07-09T14:31:17;98.60;;;31.70;;
2956;SDS011;1488;51.548;7.222;2023-07-09T14:33:48;99.13;;;30.97;;
2956;SDS011;1488;51.548;7.222;2023-07-09T14:36:15;87.50;;;33.07;;
2956;SDS011;1488;51.548;7.222;2023-07-09T14:38:56;119.03;;;37.40;;
2956;SDS011;1488;51.548;7.222;2023-07-09T14:41:58;105.13;;;34.13;;
2956;SDS011;1488;51.548;7.222;2023-07-09T14:44:26;122.83;;;37.80;;
2956;SDS011;1488;51.548;7.222;2023-07-09T15:14:01;223.17;;;161.00;;
2956;SDS011;1488;51.548;7.222;2023-07-09T15:16:28;192.57;;;134.00;;
2956;SDS011;1488;51.548;7.222;2023-07-09T15:18:55;169.47;;;108.30;;
2956;SDS011;1488;51.548;7.222;2023-07-09T15:21:21;158.47;;;116.53;;
2956;SDS011;1488;51.548;7.222;2023-07-09T15:23:48;172.43;;;125.60;;
2956;SDS011;1488;51.548;7.222;2023-07-09T15:26:15;166.10;;;120.30;;
2956;SDS011;1488;51.548;7.222;2023-07-09T15:28:43;171.67;;;123.63;;
2956;SDS011;1488;51.548;7.222;2023-07-09T15:31:15;182.13;;;126.80;;
2956;SDS011;1488;51.548;7.222;2023-07-09T15:33:42;169.90;;;122.97;;
2956;SDS011;1488;51.548;7.222;2023-07-09T15:36:09;154.50;;;122.40;;
2956;SDS011;1488;51.548;7.222;2023-07-09T15:38:37;133.53;;;101.00;;
2956;SDS011;1488;51.548;7.222;2023-07-09T15:41:06;152.83;;;110.00;;
2956;SDS011;1488;51.548;7.222;2023-07-09T15:43:37;130.80;;;104.63;;
2956;SDS011;1488;51.548;7.222;2023-07-09T15:46:04;113.93;;;92.07;;
2956;SDS011;1488;51.548;7.222;2023-07-09T15:48:32;116.13;;;84.83;;
2956;SDS011;1488;51.548;7.222;2023-07-09T15:51:00;107.17;;;74.77;;
2956;SDS011;1488;51.548;7.222;2023-07-09T15:53:29;95.23;;;69.70;;
2956;SDS011;1488;51.548;7.222;2023-07-09T15:55:56;93.33;;;67.20;;
2956;SDS011;1488;51.548;7.222;2023-07-09T15:58:26;91.10;;;69.00;;
2956;SDS011;1488;51.548;7.222;2023-07-09T16:00:56;91.07;;;70.10;;
2956;SDS011;1488;51.548;7.222;2023-07-09T16:03:23;101.20;;;74.40;;
2956;SDS011;1488;51.548;7.222;2023-07-09T16:05:51;101.63;;;82.67;;
2956;SDS011;1488;51.548;7.222;2023-07-09T16:08:19;83.97;;;67.13;;
2956;SDS011;1488;51.548;7.222;2023-07-09T16:10:46;90.87;;;65.97;;
2956;SDS011;1488;51.548;7.222;2023-07-09T16:13:15;77.87;;;62.50;;
2956;SDS011;1488;51.548;7.222;2023-07-09T16:15:44;82.13;;;67.00;;
2956;SDS011;1488;51.548;7.222;2023-07-09T16:18:11;117.40;;;88.07;;
2956;SDS011;1488;51.548;7.222;2023-07-09T16:20:38;100.23;;;81.13;;
2956;SDS011;1488;51.548;7.222;2023-07-09T16:23:07;92.00;;;77.50;;
2956;SDS011;1488;51.548;7.222;2023-07-09T16:25:40;78.00;;;65.97;;
2956;SDS011;1488;51.548;7.222;2023-07-09T16:28:08;65.53;;;55.37;;
2956;SDS011;1488;51.548;7.222;2023-07-09T16:30:38;65.33;;;48.63;;
2956;SDS011;1488;51.548;7.222;2023-07-09T16:33:05;40.80;;;36.43;;
2956;SDS011;1488;51.548;7.222;2023-07-09T16:35:32;34.60;;;24.17;;
2956;SDS011;1488;51.548;7.222;2023-07-09T16:37:59;29.73;;;22.10;;
2956;SDS011;1488;51.548;7.222;2023-07-09T16:40:28;24.73;;;21.40;;
2956;SDS011;1488;51.548;7.222;2023-07-09T16:42:57;31.70;;;25.37;;
2956;SDS011;1488;51.548;7.222;2023-07-09T16:45:26;27.63;;;23.77;;
2956;SDS011;1488;51.548;7.222;2023-07-09T16:47:54;26.97;;;21.70;;
2956;SDS011;1488;51.548;7.222;2023-07-09T16:50:22;19.23;;;17.10;;
2956;SDS011;1488;51.548;7.222;2023-07-09T16:52:51;21.87;;;16.83;;
2956;SDS011;1488;51.548;7.222;2023-07-09T16:55:20;21.27;;;16.63;;
2956;SDS011;1488;51.548;7.222;2023-07-09T16:57:51;19.33;;;16.60;;
2956;SDS011;1488;51.548;7.222;2023-07-09T17:00:26;15.10;;;12.87;;
2956;SDS011;1488;51.548;7.222;2023-07-09T17:02:55;16.27;;;13.87;;
2956;SDS011;1488;51.548;7.222;2023-07-09T17:05:23;15.90;;;13.47;;
2956;SDS011;1488;51.548;7.222;2023-07-09T17:07:51;23.37;;;17.20;;
2956;SDS011;1488;51.548;7.222;2023-07-09T17:10:18;13.83;;;12.20;;
2956;SDS011;1488;51.548;7.222;2023-07-09T17:12:46;13.47;;;10.10;;
2956;SDS011;1488;51.548;7.222;2023-07-09T17:15:20;12.40;;;11.10;;
2956;SDS011;1488;51.548;7.222;2023-07-09T17:17:49;13.83;;;9.17;;
2956;SDS011;1488;51.548;7.222;2023-07-09T17:20:18;13.73;;;10.10;;
2956;SDS011;1488;51.548;7.222;2023-07-09T17:22:45;10.90;;;9.30;;
2956;SDS011;1488;51.548;7.222;2023-07-09T17:25:19;10.93;;;9.10;;
2956;SDS011;1488;51.548;7.222;2023-07-09T17:27:54;10.90;;;9.60;;
2956;SDS011;1488;51.548;7.222;2023-07-09T17:30:22;31.40;;;23.90;;
2956;SDS011;1488;51.548;7.222;2023-07-09T17:32:48;17.90;;;13.20;;
2956;SDS011;1488;51.548;7.222;2023-07-09T17:35:15;13.87;;;9.23;;
2956;SDS011;1488;51.548;7.222;2023-07-09T17:37:44;13.20;;;8.63;;
2956;SDS011;1488;51.548;7.222;2023-07-09T17:42:43;9.40;;;8.37;;
2956;SDS011;1488;51.548;7.222;2023-07-09T17:45:12;10.23;;;8.60;;
2956;SDS011;1488;51.548;7.222;2023-07-09T17:47:39;11.20;;;7.37;;
2956;SDS011;1488;51.548;7.222;2023-07-09T17:50:12;12.40;;;6.40;;
2956;SDS011;1488;51.548;7.222;2023-07-09T17:52:39;8.67;;;7.17;;
2956;SDS011;1488;51.548;7.222;2023-07-09T17:55:06;8.10;;;6.40;;
2956;SDS011;1488;51.548;7.222;2023-07-09T17:57:33;8.70;;;6.60;;
2956;SDS011;1488;51.548;7.222;2023-07-09T18:00:00;9.70;;;5.80;;
2956;SDS011;1488;51.548;7.222;2023-07-09T18:02:29;6.37;;;5.77;;
2956;SDS011;1488;51.548;7.222;2023-07-09T18:04:58;7.57;;;5.73;;
2956;SDS011;1488;51.548;7.222;2023-07-09T18:07:26;6.60;;;5.90;;
2956;SDS011;1488;51.548;7.222;2023-07-09T18:09:57;6.50;;;5.80;;
2956;SDS011;1488;51.548;7.222;2023-07-09T18:12:24;6.60;;;5.40;;
2956;SDS011;1488;51.548;7.222;2023-07-09T18:14:54;8.17;;;5.17;;
2956;SDS011;1488;51.548;7.222;2023-07-09T18:17:25;8.50;;;5.73;;
2956;SDS011;1488;51.548;7.222;2023-07-09T18:19:57;6.37;;;5.37;;
2956;SDS011;1488;51.548;7.222;2023-07-09T18:22:24;7.23;;;5.60;;
2956;SDS011;1488;51.548;7.222;2023-07-09T18:24:56;5.53;;;5.03;;
2956;SDS011;1488;51.548;7.222;2023-07-09T18:27:24;5.37;;;4.87;;
2956;SDS011;1488;51.548;7.222;2023-07-09T18:29:52;5.67;;;5.13;;
2956;SDS011;1488;51.548;7.222;2023-07-09T18:32:21;6.20;;;5.00;;
2956;SDS011;1488;51.548;7.222;2023-07-09T18:34:51;5.43;;;4.93;;
2956;SDS011;1488;51.548;7.222;2023-07-09T18:37:21;5.23;;;4.73;;
2956;SDS011;1488;51.548;7.222;2023-07-09T18:39:49;5.83;;;4.90;;
2956;SDS011;1488;51.548;7.222;2023-07-09T18:42:16;5.80;;;5.30;;
2956;SDS011;1488;51.548;7.222;2023-07-09T18:44:46;4.63;;;4.30;;
2956;SDS011;1488;51.548;7.222;2023-07-09T18:47:13;5.07;;;4.53;;
2956;SDS011;1488;51.548;7.222;2023-07-09T18:49:41;5.57;;;4.87;;
2956;SDS011;1488;51.548;7.222;2023-07-09T18:52:12;5.40;;;4.53;;
2956;SDS011;1488;51.548;7.222;2023-07-09T18:54:41;5.03;;;4.13;;
2956;SDS011;1488;51.548;7.222;2023-07-09T18:57:10;6.00;;;4.97;;
2956;SDS011;1488;51.548;7.222;2023-07-09T18:59:40;5.83;;;5.23;;
2956;SDS011;1488;51.548;7.222;2023-07-09T19:02:12;6.83;;;4.90;;
2956;SDS011;1488;51.548;7.222;2023-07-09T19:04:43;5.20;;;4.77;;
2956;SDS011;1488;51.548;7.222;2023-07-09T19:07:14;6.30;;;4.63;;
2956;SDS011;1488;51.548;7.222;2023-07-09T19:09:42;9.00;;;4.50;;
2956;SDS011;1488;51.548;7.222;2023-07-09T19:12:11;8.90;;;5.00;;
2956;SDS011;1488;51.548;7.222;2023-07-09T19:14:39;7.77;;;5.80;;
2956;SDS011;1488;51.548;7.222;2023-07-09T19:17:09;7.00;;;4.93;;
2956;SDS011;1488;51.548;7.222;2023-07-09T19:19:40;5.50;;;4.77;;
2956;SDS011;1488;51.548;7.222;2023-07-09T19:22:08;5.37;;;4.87;;
2956;SDS011;1488;51.548;7.222;2023-07-09T19:24:39;9.23;;;5.47;;
2956;SDS011;1488;51.548;7.222;2023-07-09T19:27:10;11.40;;;4.60;;
2956;SDS011;1488;51.548;7.222;2023-07-09T19:29:36;17.37;;;14.20;;
2956;SDS011;1488;51.548;7.222;2023-07-09T19:32:06;22.27;;;19.03;;
2956;SDS011;1488;51.548;7.222;2023-07-09T19:34:40;23.80;;;20.47;;
2956;SDS011;1488;51.548;7.222;2023-07-09T19:37:12;23.87;;;21.37;;
2956;SDS011;1488;51.548;7.222;2023-07-09T19:39:46;25.50;;;20.90;;
2956;SDS011;1488;51.548;7.222;2023-07-09T19:42:14;21.73;;;18.60;;
2956;SDS011;1488;51.548;7.222;2023-07-09T19:44:42;20.83;;;17.07;;
2956;SDS011;1488;51.548;7.222;2023-07-09T19:47:14;19.73;;;16.83;;
2956;SDS011;1488;51.548;7.222;2023-07-09T19:49:45;16.73;;;15.03;;
2956;SDS011;1488;51.548;7.222;2023-07-09T19:52:16;17.20;;;15.40;;
2956;SDS011;1488;51.548;7.222;2023-07-09T19:54:46;16.93;;;14.80;;
2956;SDS011;1488;51.548;7.222;2023-07-09T19:57:14;15.60;;;13.90;;
2956;SDS011;1488;51.548;7.222;2023-07-09T19:59:42;18.37;;;14.27;;
2956;SDS011;1488;51.548;7.222;2023-07-09T20:02:16;20.50;;;14.20;;
2956;SDS011;1488;51.548;7.222;2023-07-09T20:04:45;14.17;;;12.67;;
2956;SDS011;1488;51.548;7.222;2023-07-09T20:07:12;15.90;;;12.07;;
2956;SDS011;1488;51.548;7.222;2023-07-09T20:09:40;13.60;;;12.23;;
2956;SDS011;1488;51.548;7.222;2023-07-09T20:12:16;13.17;;;11.17;;
2956;SDS011;1488;51.548;7.222;2023-07-09T20:14:45;15.83;;;12.20;;
2956;SDS011;1488;51.548;7.222;2023-07-09T20:17:12;11.57;;;10.13;;
2956;SDS011;1488;51.548;7.222;2023-07-09T20:19:42;12.60;;;10.90;;
2956;SDS011;1488;51.548;7.222;2023-07-09T20:22:25;13.97;;;10.83;;
2956;SDS011;1488;51.548;7.222;2023-07-09T20:24:56;11.90;;;10.63;;
